createdAt,value
2017-08-10T00:00:33.395Z,101347.17
2017-08-10T00:03:05.668Z,101346.84
2017-08-10T00:05:34.368Z,101345.69
2017-08-10T00:08:03.018Z,101346.66
2017-08-10T00:10:31.730Z,101335.25
2017-08-10T00:13:04.169Z,101342.59
2017-08-10T00:15:32.906Z,101338.98
2017-08-10T00:18:01.597Z,101335.61
2017-08-10T00:20:30.290Z,101338.70
2017-08-10T00:23:04.434Z,101338.84
2017-08-10T00:25:33.099Z,101328.95
2017-08-10T00:28:01.831Z,101331.25
2017-08-10T00:30:32.235Z,101332.23
2017-08-10T00:33:04.280Z,101335.05
2017-08-10T00:35:33.039Z,101339.97
2017-08-10T00:38:01.739Z,101351.27
2017-08-10T00:40:30.428Z,101350.94
2017-08-10T00:43:02.531Z,101356.74
2017-08-10T00:45:31.221Z,101358.63
2017-08-10T00:47:59.955Z,101359.13
2017-08-10T00:50:28.648Z,101367.84
2017-08-10T00:52:57.313Z,101368.38
2017-08-10T00:55:26.046Z,101372.34
2017-08-10T00:57:57.527Z,101374.23
2017-08-10T01:00:26.409Z,101384.72
2017-08-10T01:02:55.166Z,101384.39
2017-08-10T01:05:23.907Z,101384.07
2017-08-10T01:07:52.560Z,101391.15
2017-08-10T01:10:21.241Z,101387.78
2017-08-10T01:12:49.884Z,101387.41
2017-08-10T01:15:18.620Z,101396.06
2017-08-10T01:17:47.369Z,101392.33
2017-08-10T01:20:16.086Z,101393.70
2017-08-10T01:22:44.778Z,101392.45
2017-08-10T01:25:13.506Z,101393.33
2017-08-10T01:27:42.204Z,101389.70
2017-08-10T01:30:10.850Z,101375.91
2017-08-10T01:32:39.595Z,101380.00
2017-08-10T01:35:08.301Z,101383.45
2017-08-10T01:37:37.022Z,101364.97
2017-08-10T01:40:05.765Z,101373.42
2017-08-10T01:42:34.494Z,101378.66
2017-08-10T01:45:03.261Z,101382.70
2017-08-10T01:47:31.962Z,101379.00
2017-08-10T01:50:00.712Z,101387.66
2017-08-10T01:52:29.492Z,101388.23
2017-08-10T01:54:58.218Z,101390.20
2017-08-10T01:57:26.951Z,101392.06
2017-08-10T01:59:55.610Z,101386.82
2017-08-10T02:02:24.275Z,101385.48
2017-08-10T02:04:53.021Z,101385.95
2017-08-10T02:07:21.706Z,101389.14
2017-08-10T02:09:50.417Z,101392.72
2017-08-10T02:12:19.136Z,101389.80
2017-08-10T02:14:47.886Z,101381.19
2017-08-10T02:17:16.547Z,101386.40
2017-08-10T02:19:45.279Z,101377.48
2017-08-10T02:22:14.026Z,101374.19
2017-08-10T02:24:42.702Z,101371.69
2017-08-10T02:27:11.455Z,101357.08
2017-08-10T02:29:40.141Z,101356.33
2017-08-10T02:32:08.870Z,101359.91
2017-08-10T02:34:37.624Z,101363.11
2017-08-10T02:37:06.314Z,101365.19
2017-08-10T02:39:35.041Z,101368.60
2017-08-10T02:42:03.721Z,101354.45
2017-08-10T02:44:32.463Z,101358.94
2017-08-10T02:47:01.148Z,101353.73
2017-08-10T02:49:29.944Z,101360.39
2017-08-10T02:51:58.608Z,101358.17
2017-08-10T02:54:27.329Z,101356.05
2017-08-10T02:56:56.058Z,101347.02
2017-08-10T02:59:24.729Z,101349.27
2017-08-10T03:01:53.433Z,101346.77
2017-08-10T03:04:22.168Z,101335.70
2017-08-10T03:06:50.835Z,101335.29
2017-08-10T03:09:19.580Z,101340.48
2017-08-10T03:11:48.267Z,101323.80
2017-08-10T03:14:16.956Z,101318.47
2017-08-10T03:16:45.695Z,101315.30
2017-08-10T03:19:14.438Z,101309.64
2017-08-10T03:21:43.255Z,101328.11
2017-08-10T03:24:11.923Z,101332.09
2017-08-10T03:26:40.700Z,101335.20
2017-08-10T03:29:09.353Z,101335.25
2017-08-10T03:31:38.052Z,101344.77
2017-08-10T03:34:06.797Z,101338.06
2017-08-10T03:36:35.474Z,101339.92
2017-08-10T03:39:03.987Z,101339.63
2017-08-10T03:41:32.721Z,101345.69
2017-08-10T03:44:01.417Z,101346.61
2017-08-10T03:46:30.104Z,101357.14
2017-08-10T03:48:58.791Z,101360.11
2017-08-10T03:51:27.500Z,101368.44
2017-08-10T03:53:56.135Z,101368.44
2017-08-10T03:56:24.844Z,101375.03
2017-08-10T03:58:53.522Z,101375.12
2017-08-10T04:01:22.243Z,101366.14
2017-08-10T04:03:50.957Z,101366.25
2017-08-10T04:06:19.608Z,101365.27
2017-08-10T04:08:48.313Z,101365.41
2017-08-10T04:11:18.366Z,101360.71
2017-08-10T04:13:47.284Z,101359.58
2017-08-10T04:16:17.259Z,101361.20
2017-08-10T04:18:50.868Z,101358.33
2017-08-10T04:21:19.554Z,101349.39
2017-08-10T04:23:48.282Z,101340.33
2017-08-10T04:26:17.539Z,101343.31
2017-08-10T04:28:46.377Z,101344.66
2017-08-10T04:31:15.047Z,101352.98
2017-08-10T04:33:44.013Z,101355.91
2017-08-10T04:36:12.718Z,101354.73
2017-08-10T04:38:41.372Z,101359.54
2017-08-10T04:41:10.102Z,101362.30
2017-08-10T04:43:38.777Z,101367.91
2017-08-10T04:46:07.499Z,101360.22
2017-08-10T04:48:36.224Z,101346.88
2017-08-10T04:51:04.879Z,101341.27
2017-08-10T04:53:33.607Z,101340.90
2017-08-10T04:56:02.356Z,101347.22
2017-08-10T04:58:31.028Z,101354.46
2017-08-10T05:00:59.738Z,101358.70
2017-08-10T05:03:28.438Z,101360.79
2017-08-10T05:05:57.208Z,101369.84
2017-08-10T05:08:25.921Z,101378.52
2017-08-10T05:10:54.610Z,101375.48
2017-08-10T05:13:23.335Z,101378.06
2017-08-10T05:15:52.065Z,101380.50
2017-08-10T05:18:20.754Z,101385.12
2017-08-10T05:20:49.447Z,101384.09
2017-08-10T05:23:18.162Z,101383.76
2017-08-10T05:25:46.880Z,101390.61
2017-08-10T05:28:15.610Z,101393.53
2017-08-10T05:30:44.335Z,101391.75
2017-08-10T05:33:13.070Z,101393.45
2017-08-10T05:35:41.753Z,101399.41
2017-08-10T05:38:10.424Z,101403.84
2017-08-10T05:40:39.184Z,101407.33
2017-08-10T05:43:08.154Z,101416.16
2017-08-10T05:45:36.894Z,101420.71
2017-08-10T05:48:05.616Z,101430.80
2017-08-10T05:50:34.677Z,101437.81
2017-08-10T05:53:05.455Z,101439.44
2017-08-10T05:55:34.144Z,101435.05
2017-08-10T05:58:02.802Z,101427.80
2017-08-10T06:00:31.546Z,101430.84
2017-08-10T06:03:04.468Z,101432.63
2017-08-10T06:05:33.148Z,101426.77
2017-08-10T06:08:01.838Z,101425.54
2017-08-10T06:10:30.583Z,101421.65
2017-08-10T06:13:03.776Z,101438.97
2017-08-10T06:15:32.480Z,101446.31
2017-08-10T06:18:01.183Z,101437.75
2017-08-10T06:20:29.882Z,101442.05
2017-08-10T06:23:02.170Z,101438.88
2017-08-10T06:25:30.863Z,101441.05
2017-08-10T06:27:59.553Z,101444.47
2017-08-10T06:30:28.281Z,101434.30
2017-08-10T06:33:00.629Z,101433.89
2017-08-10T06:35:29.379Z,101437.75
2017-08-10T06:37:58.047Z,101442.99
2017-08-10T06:40:26.742Z,101452.86
2017-08-10T06:42:55.476Z,101447.38
2017-08-10T06:45:24.127Z,101450.95
2017-08-10T06:47:52.900Z,101452.23
2017-08-10T06:50:21.536Z,101460.09
2017-08-10T06:52:50.178Z,101459.80
2017-08-10T06:55:18.955Z,101455.61
2017-08-10T06:57:47.635Z,101458.34
2017-08-10T07:00:16.347Z,101458.91
2017-08-10T07:02:45.002Z,101459.42
2017-08-10T07:05:13.686Z,101456.48
2017-08-10T07:07:42.387Z,101464.17
2017-08-10T07:10:11.059Z,101477.56
2017-08-10T07:12:39.788Z,101473.24
2017-08-10T07:15:08.689Z,101465.80
2017-08-10T07:17:37.360Z,101476.06
2017-08-10T07:20:06.054Z,101475.19
2017-08-10T07:22:34.693Z,101473.36
2017-08-10T07:25:03.401Z,101477.42
2017-08-10T07:27:32.067Z,101466.58
2017-08-10T07:30:01.625Z,101461.26
2017-08-10T07:32:30.288Z,101464.09
2017-08-10T07:34:58.978Z,101473.09
2017-08-10T07:37:27.672Z,101478.16
2017-08-10T07:39:56.400Z,101489.33
2017-08-10T07:42:25.109Z,101488.02
2017-08-10T07:44:53.800Z,101494.73
2017-08-10T07:47:22.473Z,101489.24
2017-08-10T07:49:51.177Z,101488.69
2017-08-10T07:52:19.906Z,101487.77
2017-08-10T07:54:48.560Z,101482.54
2017-08-10T07:57:17.322Z,101479.99
2017-08-10T07:59:46.012Z,101482.09
2017-08-10T08:02:14.667Z,101487.89
2017-08-10T08:04:43.382Z,101492.17
2017-08-10T08:07:12.050Z,101488.52
2017-08-10T08:09:40.774Z,101490.52
2017-08-10T08:12:09.599Z,101491.64
2017-08-10T08:14:38.364Z,101495.95
2017-08-10T08:17:07.030Z,101492.31
2017-08-10T08:19:35.781Z,101505.30
2017-08-10T08:22:04.460Z,101496.61
2017-08-10T08:24:33.178Z,101493.30
2017-08-10T08:27:01.951Z,101493.19
2017-08-10T08:29:30.713Z,101496.50
2017-08-10T08:31:59.372Z,101492.78
2017-08-10T08:34:28.080Z,101488.68
2017-08-10T08:36:56.747Z,101491.29
2017-08-10T08:39:25.458Z,101494.87
2017-08-10T08:41:54.184Z,101490.41
2017-08-10T08:44:23.169Z,101495.02
2017-08-10T08:46:51.870Z,101494.02
2017-08-10T08:49:20.636Z,101502.06
2017-08-10T08:51:49.317Z,101493.77
2017-08-10T08:54:18.009Z,101488.78
2017-08-10T08:56:46.749Z,101498.83
2017-08-10T08:59:15.512Z,101500.45
2017-08-10T09:01:44.250Z,101501.13
2017-08-10T09:04:12.995Z,101506.51
2017-08-10T09:06:41.788Z,101517.17
2017-08-10T09:09:10.497Z,101514.81
2017-08-10T09:11:39.242Z,101518.94
2017-08-10T09:14:08.005Z,101526.11
2017-08-10T09:16:36.753Z,101535.59
2017-08-10T09:19:05.443Z,101539.17
2017-08-10T09:21:34.165Z,101531.89
2017-08-10T09:24:02.912Z,101530.70
2017-08-10T09:26:31.653Z,101527.15
2017-08-10T09:29:00.367Z,101528.91
2017-08-10T09:31:29.056Z,101536.23
2017-08-10T09:33:57.783Z,101529.97
2017-08-10T09:36:26.438Z,101525.16
2017-08-10T09:38:55.180Z,101516.16
2017-08-10T09:41:23.917Z,101513.77
2017-08-10T09:43:52.606Z,101515.49
2017-08-10T09:46:21.369Z,101512.08
2017-08-10T09:48:50.094Z,101507.33
2017-08-10T09:51:18.854Z,101504.00
2017-08-10T09:53:47.582Z,101501.75
2017-08-10T09:56:16.317Z,101502.23
2017-08-10T09:58:45.027Z,101509.86
2017-08-10T10:01:13.816Z,101519.11
2017-08-10T10:03:42.568Z,101515.85
2017-08-10T10:06:11.290Z,101520.33
2017-08-10T10:08:40.002Z,101508.66
2017-08-10T10:11:08.687Z,101516.11
2017-08-10T10:13:37.180Z,101518.48
2017-08-10T10:16:05.908Z,101523.96
2017-08-10T10:18:34.610Z,101527.42
2017-08-10T10:21:03.292Z,101533.05
2017-08-10T10:23:32.040Z,101523.18
2017-08-10T10:26:00.742Z,101519.50
2017-08-10T10:28:29.390Z,101512.77
2017-08-10T10:30:58.124Z,101507.86
2017-08-10T10:33:26.938Z,101503.61
2017-08-10T10:35:55.676Z,101506.23
2017-08-10T10:38:24.381Z,101507.77
2017-08-10T10:40:53.045Z,101500.63
2017-08-10T10:43:21.754Z,101506.59
2017-08-10T10:45:50.438Z,101514.59
2017-08-10T10:48:19.174Z,101518.87
2017-08-10T10:50:47.869Z,101514.94
2017-08-10T10:53:16.609Z,101515.09
2017-08-10T10:55:45.326Z,101521.89
2017-08-10T10:58:13.772Z,101505.47
2017-08-10T11:00:42.492Z,101499.17
2017-08-10T11:03:10.913Z,101499.94
2017-08-10T11:05:39.657Z,101501.77
2017-08-10T11:08:08.452Z,101498.48
2017-08-10T11:10:36.837Z,101497.23
2017-08-10T11:13:05.656Z,101497.23
2017-08-10T11:15:34.404Z,101491.53
2017-08-10T11:18:03.119Z,101488.05
2017-08-10T11:20:31.815Z,101486.05
2017-08-10T11:23:03.629Z,101491.40
2017-08-10T11:25:32.294Z,101485.05
2017-08-10T11:28:01.102Z,101492.77
2017-08-10T11:30:29.780Z,101483.27
2017-08-10T11:33:05.371Z,101479.53
2017-08-10T11:35:34.093Z,101479.69
2017-08-10T11:38:02.748Z,101483.62
2017-08-10T11:40:31.478Z,101487.47
2017-08-10T11:43:03.308Z,101485.20
2017-08-10T11:45:32.038Z,101493.41
2017-08-10T11:48:00.782Z,101496.31
2017-08-10T11:50:29.445Z,101501.28
2017-08-10T11:53:02.124Z,101505.31
2017-08-10T11:55:30.774Z,101509.81
2017-08-10T11:57:59.443Z,101512.53
2017-08-10T12:00:28.292Z,101507.69
2017-08-10T12:03:01.325Z,101502.95
2017-08-10T12:05:30.044Z,101495.20
2017-08-10T12:07:59.761Z,101488.75
2017-08-10T12:10:28.407Z,101499.27
2017-08-10T12:12:57.119Z,101501.14
2017-08-10T12:15:25.851Z,101498.63
2017-08-10T12:17:54.589Z,101510.08
2017-08-10T12:20:23.531Z,101506.12
2017-08-10T12:22:52.197Z,101502.17
2017-08-10T12:25:20.928Z,101487.39
2017-08-10T12:27:49.588Z,101490.59
2017-08-10T12:30:18.329Z,101495.94
2017-08-10T12:32:47.012Z,101500.68
2017-08-10T12:35:15.684Z,101500.84
2017-08-10T12:37:44.394Z,101497.70
2017-08-10T12:40:13.067Z,101498.59
2017-08-10T12:42:41.832Z,101500.25
2017-08-10T12:45:10.535Z,101501.00
2017-08-10T12:47:39.226Z,101502.17
2017-08-10T12:50:07.959Z,101500.72
2017-08-10T12:52:36.713Z,101499.59
2017-08-10T12:55:05.408Z,101494.23
2017-08-10T12:57:34.136Z,101486.16
2017-08-10T13:00:02.769Z,101475.48
2017-08-10T13:02:31.472Z,101483.08
2017-08-10T13:05:00.172Z,101490.32
2017-08-10T13:07:28.817Z,101490.59
2017-08-10T13:09:57.635Z,101483.91
2017-08-10T13:12:26.382Z,101481.47
2017-08-10T13:14:55.096Z,101483.77
2017-08-10T13:17:23.809Z,101481.81
2017-08-10T13:19:52.476Z,101483.43
2017-08-10T13:22:21.263Z,101484.25
2017-08-10T13:24:49.992Z,101486.05
2017-08-10T13:27:18.711Z,101480.94
2017-08-10T13:29:47.410Z,101473.47
2017-08-10T13:32:16.152Z,101472.23
2017-08-10T13:34:44.892Z,101477.54
2017-08-10T13:37:13.580Z,101474.09
2017-08-10T13:39:42.300Z,101474.78
2017-08-10T13:42:10.978Z,101480.16
2017-08-10T13:44:39.704Z,101476.28
2017-08-10T13:47:08.365Z,101479.28
2017-08-10T13:49:37.101Z,101481.04
2017-08-10T13:52:05.812Z,101472.34
2017-08-10T13:54:34.490Z,101468.84
2017-08-10T13:57:03.261Z,101466.02
2017-08-10T13:59:31.995Z,101472.34
2017-08-10T14:02:00.727Z,101475.73
2017-08-10T14:04:29.393Z,101476.01
2017-08-10T14:06:57.976Z,101482.49
2017-08-10T14:09:26.684Z,101478.77
2017-08-10T14:11:55.331Z,101478.91
2017-08-10T14:14:24.045Z,101480.56
2017-08-10T14:16:52.738Z,101484.97
2017-08-10T14:19:21.484Z,101480.08
2017-08-10T14:21:50.269Z,101486.97
2017-08-10T14:24:18.969Z,101483.08
2017-08-10T14:26:47.840Z,101489.55
2017-08-10T14:29:16.514Z,101487.11
2017-08-10T14:31:45.204Z,101488.70
2017-08-10T14:34:13.953Z,101487.66
2017-08-10T14:36:42.721Z,101486.11
2017-08-10T14:39:12.382Z,101476.42
2017-08-10T14:41:41.110Z,101471.70
2017-08-10T14:44:09.847Z,101479.23
2017-08-10T14:46:38.629Z,101476.55
2017-08-10T14:49:07.432Z,101468.56
2017-08-10T14:51:36.630Z,101463.59
2017-08-10T14:54:05.341Z,101461.25
2017-08-10T14:56:34.030Z,101456.98
2017-08-10T14:59:02.696Z,101460.31
2017-08-10T15:01:31.451Z,101457.42
2017-08-10T15:04:00.103Z,101452.33
2017-08-10T15:06:28.817Z,101457.69
2017-08-10T15:08:57.512Z,101461.55
2017-08-10T15:11:26.170Z,101454.73
2017-08-10T15:13:54.906Z,101464.30
2017-08-10T15:16:23.593Z,101459.44
2017-08-10T15:18:52.902Z,101461.34
2017-08-10T15:21:21.574Z,101453.52
2017-08-10T15:23:50.619Z,101453.80
2017-08-10T15:26:19.399Z,101452.12
2017-08-10T15:28:51.048Z,101452.00
2017-08-10T15:31:19.787Z,101448.82
2017-08-10T15:33:59.592Z,101446.20
2017-08-10T15:36:40.624Z,101446.41
2017-08-10T15:39:18.342Z,101455.00
2017-08-10T15:44:43.213Z,101462.44
2017-08-10T15:47:28.644Z,101453.56
2017-08-10T15:50:10.424Z,101453.15
2017-08-10T15:52:49.324Z,101448.88
2017-08-10T15:55:35.521Z,101439.05
2017-08-10T15:58:16.441Z,101433.89
2017-08-10T16:00:58.511Z,101433.69
2017-08-10T16:03:36.698Z,101436.55
2017-08-10T16:06:19.149Z,101437.24
2017-08-10T16:08:58.964Z,101441.37
2017-08-10T16:11:37.822Z,101441.33
2017-08-10T16:17:05.620Z,101452.48
2017-08-10T16:19:38.091Z,101444.33
2017-08-10T16:22:14.969Z,101439.34
2017-08-10T16:24:44.721Z,101432.38
2017-08-10T16:27:14.783Z,101423.50
2017-08-10T16:32:22.127Z,101420.05
2017-08-10T16:34:51.325Z,101417.56
2017-08-10T16:37:20.742Z,101421.50
2017-08-10T16:39:49.815Z,101418.45
2017-08-10T16:42:19.295Z,101414.94
2017-08-10T16:44:52.462Z,101419.96
2017-08-10T16:47:21.664Z,101421.16
2017-08-10T16:49:59.918Z,101416.87
2017-08-10T16:52:41.257Z,101406.55
2017-08-10T16:55:18.116Z,101412.98
2017-08-10T16:57:58.160Z,101414.62
2017-08-10T17:00:39.547Z,101409.87
2017-08-10T17:03:22.185Z,101399.48
2017-08-10T17:06:01.331Z,101401.75
2017-08-10T17:08:40.817Z,101398.30
2017-08-10T17:11:22.895Z,101403.53
2017-08-10T17:14:07.713Z,101408.72
2017-08-10T17:16:37.268Z,101421.51
2017-08-10T17:19:05.975Z,101421.92
2017-08-10T17:21:34.677Z,101418.27
2017-08-10T17:24:03.391Z,101427.13
2017-08-10T17:26:32.116Z,101424.23
2017-08-10T17:29:00.788Z,101425.64
2017-08-10T17:31:29.488Z,101421.57
2017-08-10T17:34:06.529Z,101420.94
2017-08-10T17:36:35.311Z,101421.90
2017-08-10T17:39:14.453Z,101419.96
2017-08-10T17:41:56.619Z,101422.20
2017-08-10T17:44:37.758Z,101430.56
2017-08-10T17:47:10.313Z,101427.12
2017-08-10T17:49:39.078Z,101440.95
2017-08-10T17:52:20.916Z,101435.73
2017-08-10T17:54:59.876Z,101440.32
2017-08-10T17:57:42.063Z,101437.55
2017-08-10T18:00:24.015Z,101438.09
2017-08-10T18:05:54.906Z,101433.11
2017-08-10T18:08:40.492Z,101431.45
2017-08-10T18:11:09.494Z,101436.74
2017-08-10T18:13:46.163Z,101439.61
2017-08-10T18:16:25.975Z,101435.63
2017-08-10T18:18:55.270Z,101425.86
2017-08-10T18:21:30.036Z,101437.39
2017-08-10T18:24:07.604Z,101419.05
2017-08-10T18:26:47.086Z,101417.58
2017-08-10T18:29:28.668Z,101412.07
2017-08-10T18:32:01.252Z,101416.81
2017-08-10T18:34:33.296Z,101411.50
2017-08-10T18:37:07.460Z,101424.45
2017-08-10T18:39:39.120Z,101420.41
2017-08-10T18:42:10.727Z,101429.93
2017-08-10T18:44:41.090Z,101425.05
2017-08-10T18:47:11.340Z,101432.84
2017-08-10T18:49:41.576Z,101429.34
2017-08-10T18:52:14.064Z,101425.67
2017-08-10T18:54:47.070Z,101425.75
2017-08-10T18:57:19.431Z,101426.86
2017-08-10T18:59:51.310Z,101431.72
2017-08-10T19:02:20.916Z,101432.34
2017-08-10T19:04:52.165Z,101431.06
2017-08-10T19:07:24.846Z,101430.22
2017-08-10T19:09:56.576Z,101435.16
2017-08-10T19:12:28.367Z,101433.30
2017-08-10T19:14:59.056Z,101434.26
2017-08-10T19:17:31.266Z,101435.42
2017-08-10T19:20:02.408Z,101440.52
2017-08-10T19:22:34.949Z,101439.17
2017-08-10T19:25:04.183Z,101433.33
2017-08-10T19:27:32.893Z,101437.42
2017-08-10T19:30:16.787Z,101439.32
2017-08-10T19:33:01.149Z,101437.45
2017-08-10T19:41:20.900Z,101415.69
2017-08-10T19:44:04.771Z,101412.97
2017-08-10T19:46:50.557Z,101416.59
2017-08-10T19:49:34.633Z,101419.43
2017-08-10T19:55:06.376Z,101415.02
2017-08-10T19:57:49.563Z,101416.09
2017-08-10T20:03:27.342Z,101429.44
2017-08-10T20:09:01.515Z,101430.70
2017-08-10T20:11:50.010Z,101437.33
2017-08-10T20:17:24.585Z,101452.45
2017-08-10T20:20:09.290Z,101454.40
2017-08-10T20:22:55.425Z,101454.10
2017-08-10T20:25:39.864Z,101452.67
2017-08-10T20:28:24.034Z,101446.75
2017-08-10T20:31:09.977Z,101440.50
2017-08-10T20:33:57.657Z,101439.02
2017-08-10T20:36:42.125Z,101434.51
2017-08-10T20:39:25.615Z,101438.62
2017-08-10T20:42:08.560Z,101450.67
2017-08-10T20:44:50.736Z,101449.22
2017-08-10T20:47:33.463Z,101441.75
2017-08-10T20:50:15.723Z,101430.84
2017-08-10T20:52:57.307Z,101433.29
2017-08-10T20:55:39.901Z,101426.77
2017-08-10T20:58:21.159Z,101424.88
2017-08-10T21:01:03.677Z,101413.52
2017-08-10T21:03:45.178Z,101403.89
2017-08-10T21:06:27.491Z,101401.04
2017-08-10T21:09:09.196Z,101399.25
2017-08-10T21:11:38.732Z,101404.78
2017-08-10T21:14:07.496Z,101413.23
2017-08-10T21:16:36.182Z,101404.41
2017-08-10T21:19:04.858Z,101398.15
2017-08-10T21:21:33.656Z,101382.82
2017-08-10T21:24:02.443Z,101374.88
2017-08-10T21:26:31.148Z,101389.37
2017-08-10T21:28:59.820Z,101374.47
2017-08-10T21:31:28.531Z,101369.60
2017-08-10T21:33:57.280Z,101382.33
2017-08-10T21:36:25.976Z,101376.93
2017-08-10T21:38:54.711Z,101368.88
2017-08-10T21:41:23.648Z,101377.79
2017-08-10T21:43:52.459Z,101378.39
2017-08-10T21:46:21.163Z,101380.86
2017-08-10T21:48:49.845Z,101382.06
2017-08-10T21:51:18.382Z,101375.70
2017-08-10T21:53:47.096Z,101376.09
2017-08-10T21:56:15.798Z,101384.98
2017-08-10T21:58:45.423Z,101389.48
2017-08-10T22:01:14.171Z,101399.31
2017-08-10T22:03:42.874Z,101384.00
2017-08-10T22:06:11.785Z,101372.59
2017-08-10T22:08:40.533Z,101380.14
2017-08-10T22:11:09.233Z,101377.86
2017-08-10T22:13:37.949Z,101379.70
2017-08-10T22:16:06.883Z,101376.88
2017-08-10T22:18:35.621Z,101371.12
2017-08-10T22:21:07.096Z,101370.94
2017-08-10T22:23:38.347Z,101359.05
2017-08-10T22:26:07.457Z,101357.03
2017-08-10T22:28:36.344Z,101352.13
2017-08-10T22:31:05.076Z,101355.40
2017-08-10T22:33:37.920Z,101363.45
2017-08-10T22:36:07.955Z,101369.71
2017-08-10T22:38:37.851Z,101375.27
2017-08-10T22:41:09.876Z,101368.36
2017-08-10T22:43:42.132Z,101366.76
2017-08-10T22:46:18.298Z,101369.17
2017-08-10T22:48:47.872Z,101362.05
2017-08-10T22:51:18.998Z,101360.55
2017-08-10T22:53:49.052Z,101350.41
2017-08-10T22:56:18.501Z,101343.70
2017-08-10T22:58:48.331Z,101344.59
2017-08-10T23:01:18.035Z,101330.21
2017-08-10T23:03:47.416Z,101334.33
2017-08-10T23:06:17.611Z,101344.09
2017-08-10T23:08:50.167Z,101353.22
2017-08-10T23:11:19.803Z,101345.08
2017-08-10T23:13:49.552Z,101345.82
2017-08-10T23:16:18.817Z,101344.63
2017-08-10T23:18:48.739Z,101340.47
2017-08-10T23:21:21.343Z,101340.67
2017-08-10T23:23:53.264Z,101343.38
2017-08-10T23:26:26.266Z,101354.63
2017-08-10T23:28:57.387Z,101357.72
2017-08-10T23:31:28.304Z,101350.23
2017-08-10T23:33:59.759Z,101346.97
2017-08-10T23:36:31.132Z,101345.82
2017-08-10T23:39:03.691Z,101343.34
2017-08-10T23:41:34.303Z,101343.92
2017-08-10T23:44:05.310Z,101336.31
2017-08-10T23:46:36.487Z,101329.88
2017-08-10T23:49:05.213Z,101327.48
2017-08-10T23:51:33.854Z,101318.89
2017-08-10T23:54:02.578Z,101322.05
2017-08-10T23:56:31.247Z,101324.75
2017-08-10T23:58:59.979Z,101325.83
